H.r.spies — AESJ — position and weather

sailwx.info

Track history (hours):
 
Tides and Currents Weather Stations Pressure Air Temp Water Temp Dewpoint Dewpoint Depression Visibility Wind Speed Wind Dir Waves Ship Positions

H.r.spies

Last reported at 2018-Feb-21 12:53 UTC. Time now 2018-Feb-21 13:25 UTC.
Position N 39°22' W 076°07'.

; draft 5 m.

Type: Dredging. MMSI: 368926068.

Date/timePositionNaut miles runAvg speedWind from/ knotsBaromVisibWave heightAir tempDewpointWater temp
2018-Feb-21 12:53N 39°22' W 076°07'821.3
2018-Feb-21 12:30N 39°27' W 075°59'612.4
2018-Feb-21 12:00N 39°31' W 075°53'4 6.7
2018-Feb-21 11:29N 39°32' W 075°49'0 0.0
2018-Feb-21 10:59N 39°32' W 075°49'0 0.0
2018-Feb-21 10:29N 39°32' W 075°49'0 0.0
2018-Feb-21 10:00N 39°32' W 075°49'0 0.0
2018-Feb-21 09:30N 39°32' W 075°49'0 0.0
2018-Feb-21 09:00N 39°32' W 075°49'0 0.0
2018-Feb-21 08:30N 39°32' W 075°49'0 0.0
2018-Feb-21 07:57N 39°32' W 075°49'0 0.0
2018-Feb-21 07:30N 39°32' W 075°49'0 0.0
2018-Feb-21 07:00N 39°32' W 075°49'0 0.0
2018-Feb-21 06:30N 39°32' W 075°49'0 0.0
2018-Feb-21 06:00N 39°32' W 075°49'0 0.0
2018-Feb-21 05:30N 39°32' W 075°49'0 0.0
2018-Feb-21 05:00N 39°32' W 075°49'0 0.0
2018-Feb-21 04:30N 39°32' W 075°49'0 0.0
2018-Feb-21 04:00N 39°32' W 075°49'0 0.0
2018-Feb-21 03:30N 39°32' W 075°49'0 0.0
2018-Feb-21 03:00N 39°32' W 075°49'0 0.0
2018-Feb-21 02:30N 39°32' W 075°49'0 0.0
2018-Feb-21 01:57N 39°32' W 075°49'0 0.0
2018-Feb-21 01:30N 39°32' W 075°49'0 0.0
2018-Feb-21 01:00N 39°32' W 075°49'0 0.0
2018-Feb-21 00:30N 39°32' W 075°49'0 0.0
2018-Feb-21 00:00N 39°32' W 075°49'0 0.0
2018-Feb-20 23:30N 39°32' W 075°49'0 0.0
2018-Feb-20 23:00N 39°32' W 075°49'0 0.0
2018-Feb-20 22:30N 39°32' W 075°49'0 0.0
2018-Feb-20 22:00N 39°32' W 075°49'0 0.0
2018-Feb-20 21:30N 39°32' W 075°49'0 0.0
2018-Feb-20 21:00N 39°32' W 075°49'0 0.0
2018-Feb-20 20:30N 39°32' W 075°49'0 0.0
2018-Feb-20 20:00N 39°32' W 075°49'0 0.0
2018-Feb-20 19:21N 39°32' W 075°49'0 0.0
2018-Feb-20 19:00N 39°32' W 075°49'0 0.0
2018-Feb-20 18:30N 39°32' W 075°49'0 0.0
2018-Feb-20 18:00N 39°32' W 075°49'0 0.0
2018-Feb-20 17:27N 39°32' W 075°49'0 0.0
2018-Feb-20 16:54N 39°32' W 075°49'0 0.0
2018-Feb-20 16:30N 39°32' W 075°49'0 0.0
2018-Feb-20 15:57N 39°32' W 075°49'1 2.8
2018-Feb-20 15:30N 39°32' W 075°50'1 2.5
2018-Feb-20 15:00N 39°32' W 075°49'0 0.0
2018-Feb-20 14:30N 39°32' W 075°49'0 0.0
2018-Feb-20 14:00N 39°32' W 075°49'0 0.0
2018-Feb-20 13:30N 39°32' W 075°49'0 0.0
2018-Feb-20 13:00N 39°32' W 075°49'0 0.0
2018-Feb-20 12:30N 39°32' W 075°49'3 5.2
2018-Feb-20 12:00N 39°32' W 075°52'3 4.8
2018-Feb-20 11:29N 39°32' W 075°49'0 0.0
2018-Feb-20 10:59N 39°32' W 075°49'0 0.0
2018-Feb-20 10:29N 39°32' W 075°49'0 0.0
2018-Feb-20 09:59N 39°32' W 075°49'0 0.0
2018-Feb-20 09:29N 39°32' W 075°49'0 0.0
2018-Feb-20 08:59N 39°32' W 075°49'0 0.0
2018-Feb-20 08:29N 39°32' W 075°49'0 0.0
2018-Feb-20 07:59N 39°32' W 075°49'0 0.0
2018-Feb-20 07:26N 39°32' W 075°49'0 0.0
2018-Feb-20 06:59N 39°32' W 075°49'0 0.0
2018-Feb-20 06:26N 39°32' W 075°49'0 0.0
2018-Feb-20 05:56N 39°32' W 075°49'0 0.0
2018-Feb-20 05:26N 39°32' W 075°49'0 0.0
2018-Feb-20 04:59N 39°32' W 075°49'0 0.0
2018-Feb-20 04:29N 39°32' W 075°49'0 0.0
2018-Feb-20 03:59N 39°32' W 075°49'0 0.0
2018-Feb-20 03:29N 39°32' W 075°49'0 0.0
2018-Feb-20 02:59N 39°32' W 075°49'0 0.0
2018-Feb-20 02:29N 39°32' W 075°49'0 0.0
2018-Feb-20 01:59N 39°32' W 075°49'0 0.0
2018-Feb-20 01:29N 39°32' W 075°49'0 0.0
2018-Feb-20 00:56N 39°32' W 075°49'0 0.0
2018-Feb-20 00:28N 39°32' W 075°49'0 0.0
2018-Feb-19 23:58N 39°32' W 075°49'0 0.0
2018-Feb-19 23:28N 39°32' W 075°49'0 0.0
2018-Feb-19 22:58N 39°32' W 075°49'0 0.0
2018-Feb-19 22:29N 39°32' W 075°49'0 0.0
2018-Feb-19 21:59N 39°32' W 075°49'0 0.0
2018-Feb-19 21:23N 39°32' W 075°49'0 0.0
2018-Feb-19 20:59N 39°32' W 075°49'0 0.0
2018-Feb-19 20:29N 39°32' W 075°49'0 0.0
2018-Feb-19 19:59N 39°32' W 075°49'0 0.0
2018-Feb-19 19:29N 39°32' W 075°49'0 0.0
2018-Feb-19 18:59N 39°32' W 075°49'0 0.0
2018-Feb-19 18:29N 39°32' W 075°49'0 0.0
2018-Feb-19 17:59N 39°32' W 075°49'0 0.0
2018-Feb-19 17:29N 39°32' W 075°49'0 0.0
2018-Feb-19 16:59N 39°32' W 075°49'0 0.0
2018-Feb-19 16:26N 39°32' W 075°49'0 0.0
2018-Feb-19 15:59N 39°32' W 075°49'0 0.0
2018-Feb-19 15:29N 39°32' W 075°49'0 0.0
2018-Feb-19 14:59N 39°32' W 075°49'0 0.0
2018-Feb-19 14:20N 39°32' W 075°49'0 0.0
2018-Feb-19 13:59N 39°32' W 075°49'0 0.0
2018-Feb-19 13:29N 39°32' W 075°49'0 0.0
2018-Feb-19 12:59N 39°32' W 075°49'0 0.0
2018-Feb-19 12:29N 39°32' W 075°49'0 0.0
2018-Feb-19 12:00N 39°32' W 075°49'0 0.0
2018-Feb-19 11:29N 39°32' W 075°49'0 0.0
2018-Feb-19 10:59N 39°32' W 075°49'0 0.0
2018-Feb-19 10:26N 39°32' W 075°49'0 0.0
2018-Feb-19 09:59N 39°32' W 075°49'0 0.0
2018-Feb-19 09:29N 39°32' W 075°49'0 0.0
2018-Feb-19 08:59N 39°32' W 075°49'0 0.0
2018-Feb-19 08:23N 39°32' W 075°49'0 0.0
2018-Feb-19 07:59N 39°32' W 075°49'0 0.0
2018-Feb-19 07:29N 39°32' W 075°49'0 0.0
2018-Feb-19 06:56N 39°32' W 075°49'0 0.0
2018-Feb-19 06:29N 39°32' W 075°49'0 0.0
2018-Feb-19 05:56N 39°32' W 075°49'0 0.0
2018-Feb-19 05:29N 39°32' W 075°49'0 0.0
2018-Feb-19 04:59N 39°32' W 075°49'0 0.0
2018-Feb-19 04:29N 39°32' W 075°49'0 0.0
2018-Feb-19 03:59N 39°32' W 075°49'0 0.0
2018-Feb-19 03:29N 39°32' W 075°49'0 0.0
2018-Feb-19 02:59N 39°32' W 075°49'0 0.0
2018-Feb-19 02:29N 39°32' W 075°49'0 0.0
2018-Feb-19 01:56N 39°32' W 075°49'0 0.0
2018-Feb-19 01:29N 39°32' W 075°49'0 0.0
2018-Feb-19 00:59N 39°32' W 075°49'0 0.0
2018-Feb-19 00:29N 39°32' W 075°49'0 0.0
2018-Feb-18 23:56N 39°32' W 075°49'0 0.0
2018-Feb-18 23:29N 39°32' W 075°49'0 0.0
2018-Feb-18 22:56N 39°32' W 075°49'0 0.0
2018-Feb-18 22:29N 39°32' W 075°49'0 0.0
2018-Feb-18 21:59N 39°32' W 075°49'0 0.0
2018-Feb-18 21:29N 39°32' W 075°49'0 0.0
2018-Feb-18 20:59N 39°32' W 075°49'0 0.0
2018-Feb-18 20:29N 39°32' W 075°49'0 0.0
2018-Feb-18 19:59N 39°32' W 075°49'0 0.0
2018-Feb-18 19:29N 39°32' W 075°49'0 0.0
2018-Feb-18 18:55N 39°32' W 075°49'0 0.0
2018-Feb-18 18:28N 39°32' W 075°49'0 0.0
2018-Feb-18 17:58N 39°32' W 075°49'0 0.0
2018-Feb-18 17:28N 39°32' W 075°49'0 0.0
2018-Feb-18 16:55N 39°32' W 075°49'0 0.0
2018-Feb-18 16:28N 39°32' W 075°49'0 0.0
2018-Feb-18 15:58N 39°32' W 075°49'0 0.0
2018-Feb-18 15:28N 39°32' W 075°49'0 0.0
2018-Feb-18 14:58N 39°32' W 075°49'0 0.0
2018-Feb-18 14:25N 39°32' W 075°49'0 0.0
2018-Feb-18 13:58N 39°32' W 075°49'0 0.0
2018-Feb-18 13:25N 39°32' W 075°49'0 0.0
2018-Feb-18 12:55N 39°32' W 075°49'0 0.0
2018-Feb-18 12:28N 39°32' W 075°49'0 0.0
2018-Feb-18 11:58N 39°32' W 075°49'0 0.0
2018-Feb-18 11:28N 39°32' W 075°49'0 0.0
2018-Feb-18 10:58N 39°32' W 075°49'0 0.0
2018-Feb-18 10:28N 39°32' W 075°49'0 0.0
2018-Feb-18 09:58N 39°32' W 075°49'0 0.0
2018-Feb-18 09:28N 39°32' W 075°49'0 0.0
2018-Feb-18 08:58N 39°32' W 075°49'0 0.0
2018-Feb-18 08:25N 39°32' W 075°49'0 0.0
2018-Feb-18 07:58N 39°32' W 075°49'0 0.0
2018-Feb-18 07:28N 39°32' W 075°49'0 0.0
2018-Feb-18 06:58N 39°32' W 075°49'0 0.0
2018-Feb-18 06:29N 39°32' W 075°49'0 0.0
2018-Feb-18 05:59N 39°32' W 075°49'0 0.0
2018-Feb-18 05:29N 39°32' W 075°49'0 0.0
2018-Feb-18 04:59N 39°32' W 075°49'0 0.0
2018-Feb-18 04:29N 39°32' W 075°49'0 0.0
2018-Feb-18 03:59N 39°32' W 075°49'0 0.0
2018-Feb-18 03:29N 39°32' W 075°49'0 0.0
2018-Feb-18 03:00N 39°32' W 075°49'0 0.0
2018-Feb-18 02:29N 39°32' W 075°49'0 0.0
2018-Feb-18 01:56N 39°32' W 075°49'0 0.0
2018-Feb-18 01:29N 39°32' W 075°49'0 0.0
2018-Feb-18 00:47N 39°32' W 075°49'0 0.0
2018-Feb-18 00:26N 39°32' W 075°49'0 0.0
2018-Feb-17 23:59N 39°32' W 075°49'0 0.0
2018-Feb-17 22:59N 39°32' W 075°49'0 0.0
2018-Feb-17 22:29N 39°32' W 075°49'0 0.0
2018-Feb-17 21:59N 39°32' W 075°49'0 0.0
2018-Feb-17 21:29N 39°32' W 075°49'0 0.0
2018-Feb-17 20:59N 39°32' W 075°49'0 0.0
2018-Feb-17 20:29N 39°32' W 075°49'0 0.0
2018-Feb-17 19:59N 39°32' W 075°49'0 0.0
2018-Feb-17 19:29N 39°32' W 075°49'0 0.0
2018-Feb-17 18:56N 39°32' W 075°49'0 0.0
2018-Feb-17 18:29N 39°32' W 075°49'0 0.0
2018-Feb-17 17:58N 39°32' W 075°49'0 0.0
2018-Feb-17 17:28N 39°32' W 075°49'0 0.0
2018-Feb-17 16:58N 39°32' W 075°49'0 0.0
2018-Feb-17 16:28N 39°32' W 075°49'0 0.0
2018-Feb-17 15:58N 39°32' W 075°49'0 0.0
2018-Feb-17 15:28N 39°32' W 075°49'0 0.0
2018-Feb-17 14:58N 39°32' W 075°49'0 0.0
2018-Feb-17 14:28N 39°32' W 075°49'0 0.0
2018-Feb-17 13:55N 39°32' W 075°49'0 0.0
2018-Feb-17 13:28N 39°32' W 075°49'0 0.0
2018-Feb-17 12:58N 39°32' W 075°49'0 0.0
2018-Feb-17 12:28N 39°32' W 075°49'0 0.0
2018-Feb-17 11:58N 39°32' W 075°49'0 0.0
2018-Feb-16 18:52N 39°32' W 075°49'0 0.0
2018-Feb-16 18:28N 39°32' W 075°49'0 0.0
2018-Feb-16 17:58N 39°32' W 075°49'0 0.0
2018-Feb-16 17:28N 39°32' W 075°49'0 0.0
2018-Feb-16 16:55N 39°32' W 075°49'0 0.0
2018-Feb-16 16:25N 39°32' W 075°49'0 0.0
2018-Feb-16 15:58N 39°32' W 075°49'0 0.0
2018-Feb-16 15:28N 39°32' W 075°49'0 0.0
2018-Feb-16 14:58N 39°32' W 075°49'0 0.0
2018-Feb-16 14:28N 39°32' W 075°49'0 0.0
2018-Feb-16 13:58N 39°32' W 075°49'0 0.0
2018-Feb-16 13:28N 39°32' W 075°49'0 0.0
2018-Feb-16 12:58N 39°32' W 075°49'0 0.0
2018-Feb-16 12:28N 39°32' W 075°49'0 0.0
2018-Feb-16 11:55N 39°32' W 075°49'0 0.0
2018-Feb-16 11:25N 39°32' W 075°49'0 0.0
2018-Feb-16 10:55N 39°32' W 075°49'0 0.0
2018-Feb-16 10:28N 39°32' W 075°49'0 0.0
2018-Feb-16 09:58N 39°32' W 075°49'0 0.0
2018-Feb-16 09:25N 39°32' W 075°49'0 0.0
2018-Feb-16 08:58N 39°32' W 075°49'0 0.0
2018-Feb-16 08:28N 39°32' W 075°49'0 0.0
2018-Feb-16 07:55N 39°32' W 075°49'0 0.0
2018-Feb-16 07:25N 39°32' W 075°49'0 0.0
2018-Feb-16 06:58N 39°32' W 075°49'0 0.0
2018-Feb-16 06:28N 39°32' W 075°49'0 0.0
2018-Feb-16 05:58N 39°32' W 075°49'0 0.0
2018-Feb-16 05:28N 39°32' W 075°49'0 0.0
2018-Feb-16 04:55N 39°32' W 075°49'0 0.0
2018-Feb-16 04:28N 39°32' W 075°49'0 0.0
2018-Feb-16 03:58N 39°32' W 075°49'0 0.0
2018-Feb-16 03:28N 39°32' W 075°49'0 0.0
2018-Feb-16 02:58N 39°32' W 075°49'0 0.0
2018-Feb-16 02:28N 39°32' W 075°49'0 0.0
2018-Feb-16 01:55N 39°32' W 075°49'0 0.0
2018-Feb-16 01:28N 39°32' W 075°49'0 0.0
2018-Feb-15 23:04N 39°32' W 075°49'0 0.0
2018-Feb-15 22:55N 39°32' W 075°49'0 0.0
2018-Feb-15 22:28N 39°32' W 075°49'0 0.0
2018-Feb-15 21:58N 39°32' W 075°49'0 0.0
2018-Feb-15 21:28N 39°32' W 075°49'0 0.0
2018-Feb-15 20:58N 39°32' W 075°49'0 0.0
2018-Feb-15 20:28N 39°32' W 075°49'0 0.0
2018-Feb-15 19:58N 39°32' W 075°49'0 0.0
2018-Feb-15 19:25N 39°32' W 075°49'0 0.0
2018-Feb-15 18:58N 39°32' W 075°49'0 0.0
2018-Feb-15 18:28N 39°32' W 075°49'0 0.0
2018-Feb-15 17:52N 39°32' W 075°49'0 0.0
2018-Feb-15 17:22N 39°32' W 075°49'0 0.0
2018-Feb-15 16:58N 39°32' W 075°49'1012.0
2018-Feb-15 16:05N 39°26' W 076°00'0 1.0
2018-Feb-15 16:01N 39°26' W 076°00'0 0.1
2018-Feb-15 15:15N 39°26' W 076°00'0 1.9
2018-Feb-15 15:00N 39°26' W 076°01'0 0.3
2018-Feb-15 14:20N 39°26' W 076°01'0 1.0
2018-Feb-15 14:00N 39°26' W 076°01'0 0.7
2018-Feb-15 13:30N 39°26' W 076°01'0 0.2
2018-Feb-15 13:00N 39°26' W 076°01'2 3.4
2018-Feb-15 12:31N 39°27' W 075°59'918.4
2018-Feb-15 12:00N 39°32' W 075°49'0 0.2
2018-Feb-15 11:30N 39°32' W 075°49'0 0.0
2018-Feb-15 11:00N 39°32' W 075°49'0 0.0
2018-Feb-15 10:30N 39°32' W 075°49'0 0.0
2018-Feb-15 09:57N 39°32' W 075°49'0 0.0
2018-Feb-15 09:30N 39°32' W 075°49'0 0.0
2018-Feb-15 09:00N 39°32' W 075°49'0 0.0
2018-Feb-15 08:30N 39°32' W 075°49'0 0.0
2018-Feb-15 07:57N 39°32' W 075°49'0 0.0
2018-Feb-15 07:30N 39°32' W 075°49'0 0.0
2018-Feb-15 07:00N 39°32' W 075°49'0 0.0
2018-Feb-15 06:24N 39°32' W 075°49'0 0.0
2018-Feb-15 06:00N 39°32' W 075°49'0 0.0
2018-Feb-15 05:30N 39°32' W 075°49'0 0.0
2018-Feb-15 05:00N 39°32' W 075°49'0 0.0
2018-Feb-15 04:30N 39°32' W 075°49'0 0.0
2018-Feb-15 04:00N 39°32' W 075°49'0 0.0
2018-Feb-15 03:30N 39°32' W 075°49'0 0.0
2018-Feb-15 02:57N 39°32' W 075°49'0 0.0
2018-Feb-15 02:30N 39°32' W 075°49'0 0.0
2018-Feb-15 01:59N 39°32' W 075°49'0 0.0
2018-Feb-15 01:30N 39°32' W 075°49'0 0.0
2018-Feb-15 00:57N 39°32' W 075°49'0 0.0
2018-Feb-15 00:29N 39°32' W 075°49'0 0.0
2018-Feb-15 00:00N 39°32' W 075°49'0 0.0
2018-Feb-14 23:30N 39°32' W 075°49'0 0.0
2018-Feb-14 22:59N 39°32' W 075°49'0 0.0
2018-Feb-14 22:21N 39°32' W 075°49'0 0.0
2018-Feb-14 21:59N 39°32' W 075°49'0 0.0
2018-Feb-14 21:30N 39°32' W 075°49'0 0.0
2018-Feb-14 21:00N 39°32' W 075°49'0 0.0
2018-Feb-14 20:30N 39°32' W 075°49'0 0.0
2018-Feb-14 19:59N 39°32' W 075°49'0 0.0
2018-Feb-14 19:31N 39°32' W 075°49'0 0.0
2018-Feb-14 19:01N 39°32' W 075°49'1 1.5
2018-Feb-14 18:30N 39°32' W 075°49'1018.5
2018-Feb-14 17:59N 39°26' W 076°00'2 3.5
2018-Feb-14 17:30N 39°25' W 076°01'0 0.8
2018-Feb-14 17:00N 39°25' W 076°01'0 0.4
2018-Feb-14 16:31N 39°25' W 076°01'0 0.2
2018-Feb-14 16:00N 39°25' W 076°01'0 0.9
2018-Feb-14 15:28N 39°25' W 076°02'1021.9
2018-Feb-14 15:00N 39°32' W 075°52'2 4.7
2018-Feb-14 14:29N 39°32' W 075°49'0 0.0
2018-Feb-14 13:59N 39°32' W 075°49'0 0.0
2018-Feb-14 13:29N 39°32' W 075°49'0 0.0
2018-Feb-14 12:59N 39°32' W 075°49'0 0.0
2018-Feb-14 12:29N 39°32' W 075°49'0 0.0
2018-Feb-14 11:59N 39°32' W 075°49'0 0.0
2018-Feb-14 11:29N 39°32' W 075°49'0 0.0
2018-Feb-14 10:59N 39°32' W 075°49'0 0.0
2018-Feb-14 10:29N 39°32' W 075°49'0 0.0
2018-Feb-14 09:59N 39°32' W 075°49'0 0.0
2018-Feb-14 09:26N 39°32' W 075°49'0 0.0
2018-Feb-14 08:59N 39°32' W 075°49'0 0.0
2018-Feb-14 08:29N 39°32' W 075°49'0 0.0
2018-Feb-14 07:59N 39°32' W 075°49'0 0.0
2018-Feb-14 07:29N 39°32' W 075°49'0 0.0
2018-Feb-14 06:59N 39°32' W 075°49'0 0.0
2018-Feb-14 06:29N 39°32' W 075°49'0 0.0
2018-Feb-14 05:59N 39°32' W 075°49'0 0.0
2018-Feb-14 05:29N 39°32' W 075°49'0 0.0
2018-Feb-14 04:59N 39°32' W 075°49'0 0.0
2018-Feb-14 04:29N 39°32' W 075°49'0 0.0
2018-Feb-14 03:56N 39°32' W 075°49'0 0.0
2018-Feb-14 03:26N 39°32' W 075°49'0 0.0
2018-Feb-14 02:59N 39°32' W 075°49'0 0.0
2018-Feb-14 02:29N 39°32' W 075°49'0 0.0
2018-Feb-14 01:56N 39°32' W 075°49'0 0.0
2018-Feb-14 01:29N 39°32' W 075°49'0 0.0
2018-Feb-14 00:59N 39°32' W 075°49'0 0.0
2018-Feb-14 00:28N 39°32' W 075°49'0 0.0
2018-Feb-13 23:46N 39°32' W 075°49'0 0.0
2018-Feb-13 23:28N 39°32' W 075°49'0 0.0
2018-Feb-13 22:58N 39°32' W 075°49'0 0.0
2018-Feb-13 22:28N 39°32' W 075°49'0 0.0
2018-Feb-13 21:58N 39°32' W 075°49'0 0.0
2018-Feb-13 21:25N 39°32' W 075°49'717.6
2018-Feb-13 21:00N 39°33' W 075°39'1019.7
2018-Feb-13 20:31N 39°26' W 075°31'1223.2
2018-Feb-13 20:00N 39°17' W 075°21'1 1.1
2018-Feb-13 19:30N 39°17' W 075°22'1 1.7
2018-Feb-13 19:01N 39°16' W 075°21'0 0.7
2018-Feb-13 18:31N 39°17' W 075°21'0 0.6
2018-Feb-13 18:00N 39°17' W 075°21'1 1.1
2018-Feb-13 17:31N 39°16' W 075°21'4 8.6
2018-Feb-13 17:00N 39°13' W 075°17'0 0.1
2018-Feb-13 16:30N 39°13' W 075°17'0 0.5
2018-Feb-13 16:01N 39°13' W 075°17'0 0.4
2018-Feb-13 15:30N 39°13' W 075°18'0 0.3
2018-Feb-13 15:00N 39°13' W 075°18'0 0.3
2018-Feb-13 14:30N 39°13' W 075°18'0 0.4
2018-Feb-13 14:00N 39°13' W 075°18'0 0.3
2018-Feb-13 13:31N 39°13' W 075°18'5 9.9
2018-Feb-13 13:01N 39°17' W 075°21'1224.5
2018-Feb-13 12:31N 39°26' W 075°32'918.1
2018-Feb-13 12:01N 39°33' W 075°40'612.4
2018-Feb-13 11:29N 39°32' W 075°49'0 0.0
2018-Feb-13 10:59N 39°32' W 075°49'0 0.0
2018-Feb-13 10:26N 39°32' W 075°49'0 0.0
2018-Feb-13 09:56N 39°32' W 075°49'0 0.0
2018-Feb-13 09:29N 39°32' W 075°49'0 0.0
2018-Feb-13 08:56N 39°32' W 075°49'0 0.0
2018-Feb-13 08:29N 39°32' W 075°49'0 0.0
2018-Feb-13 07:59N 39°32' W 075°49'0 0.0
2018-Feb-13 07:29N 39°32' W 075°49'0 0.0
2018-Feb-13 06:56N 39°32' W 075°49'0 0.0
2018-Feb-13 06:29N 39°32' W 075°49'0 0.0
2018-Feb-13 05:59N 39°32' W 075°49'0 0.0
2018-Feb-13 05:29N 39°32' W 075°49'0 0.0
2018-Feb-13 04:56N 39°32' W 075°49'0 0.0
2018-Feb-13 04:29N 39°32' W 075°49'0 0.0
2018-Feb-13 03:59N 39°32' W 075°49'0 0.0
2018-Feb-13 03:29N 39°32' W 075°49'0 0.0
2018-Feb-13 02:59N 39°32' W 075°49'0 0.0
2018-Feb-13 02:29N 39°32' W 075°49'0 0.0
2018-Feb-13 01:59N 39°32' W 075°49'0 0.0
2018-Feb-13 01:29N 39°32' W 075°49'0 0.0
2018-Feb-13 01:00N 39°32' W 075°49'0 0.0
2018-Feb-13 00:30N 39°32' W 075°49'0 0.0
2018-Feb-13 00:00N 39°32' W 075°49'0 0.0
2018-Feb-12 23:30N 39°32' W 075°49'0 0.0
2018-Feb-12 22:57N 39°32' W 075°49'0 0.0
2018-Feb-12 22:30N 39°32' W 075°49'0 0.0
2018-Feb-12 21:56N 39°32' W 075°49'0 0.0
2018-Feb-12 21:29N 39°32' W 075°49'0 0.0
2018-Feb-12 20:56N 39°32' W 075°49'0 0.0
2018-Feb-12 20:27N 39°32' W 075°49'0 0.0
2018-Feb-12 20:00N 39°32' W 075°49'0 0.0
2018-Feb-12 19:27N 39°32' W 075°49'0 0.0
2018-Feb-12 19:00N 39°32' W 075°49'0 0.0
2018-Feb-12 18:30N 39°32' W 075°49'0 0.0
2018-Feb-12 17:57N 39°32' W 075°49'0 0.0
2018-Feb-12 17:30N 39°32' W 075°49'0 0.0
2018-Feb-12 17:00N 39°32' W 075°49'0 0.0
2018-Feb-12 16:30N 39°32' W 075°49'0 0.0
2018-Feb-12 16:00N 39°32' W 075°49'0 0.1
2018-Feb-12 15:18N 39°32' W 075°49'518.1
2018-Feb-12 15:01N 39°33' W 075°42'713.0
2018-Feb-12 14:31N 39°34' W 075°34'0 0.2
2018-Feb-12 14:00N 39°34' W 075°33'2 3.9
2018-Feb-12 13:31N 39°33' W 075°36'1019.7
2018-Feb-12 13:00N 39°32' W 075°49'0 0.0
2018-Feb-12 12:28N 39°32' W 075°49'0 0.0
2018-Feb-12 11:58N 39°32' W 075°49'0 0.0
2018-Feb-12 11:22N 39°32' W 075°49'0 0.0
2018-Feb-12 10:58N 39°32' W 075°49'0 0.0
2018-Feb-12 10:25N 39°32' W 075°49'0 0.0
2018-Feb-12 09:58N 39°32' W 075°49'0 0.0
2018-Feb-12 09:28N 39°32' W 075°49'0 0.0
2018-Feb-12 08:58N 39°32' W 075°49'0 0.0
2018-Feb-12 08:28N 39°32' W 075°49'0 0.0
2018-Feb-12 07:58N 39°32' W 075°49'0 0.0
2018-Feb-12 07:28N 39°32' W 075°49'0 0.0
2018-Feb-12 06:55N 39°32' W 075°49'0 0.0
2018-Feb-12 06:28N 39°32' W 075°49'0 0.0
2018-Feb-12 06:00N 39°32' W 075°49'0 0.0
2018-Feb-12 05:30N 39°32' W 075°49'0 0.0
2018-Feb-12 05:00N 39°32' W 075°49'0 0.0
2018-Feb-12 04:27N 39°32' W 075°49'0 0.0
2018-Feb-12 04:00N 39°32' W 075°49'0 0.0
2018-Feb-12 03:30N 39°32' W 075°49'0 0.0
2018-Feb-12 03:00N 39°32' W 075°49'0 0.0
2018-Feb-12 02:30N 39°32' W 075°49'0 0.0
2018-Feb-12 01:57N 39°32' W 075°49'0 0.0
2018-Feb-12 01:30N 39°32' W 075°49'0 0.0
2018-Feb-12 00:57N 39°32' W 075°49'0 0.0
2018-Feb-12 00:30N 39°32' W 075°49'0 0.0
2018-Feb-12 00:00N 39°32' W 075°49'0 0.0
2018-Feb-11 23:30N 39°32' W 075°49'0 0.0
2018-Feb-11 22:57N 39°32' W 075°49'0 0.0
2018-Feb-11 22:30N 39°32' W 075°49'0 0.0
2018-Feb-11 22:00N 39°32' W 075°49'0 0.0
2018-Feb-11 21:30N 39°32' W 075°49'0 0.0
2018-Feb-11 21:00N 39°32' W 075°49'0 0.0
2018-Feb-11 20:30N 39°32' W 075°49'0 0.0
2018-Feb-11 19:56N 39°32' W 075°49'0 0.0
2018-Feb-11 19:26N 39°32' W 075°49'0 0.0
2018-Feb-11 18:59N 39°32' W 075°49'0 0.0
2018-Feb-11 18:29N 39°32' W 075°49'0 0.0
2018-Feb-11 17:56N 39°32' W 075°49'0 0.0
2018-Feb-11 17:29N 39°32' W 075°49'0 0.0
2018-Feb-11 16:59N 39°32' W 075°49'0 0.0
2018-Feb-11 16:29N 39°32' W 075°49'0 0.0
2018-Feb-11 15:44N 39°32' W 075°49'0 0.0
2018-Feb-11 15:29N 39°32' W 075°49'0 0.0
2018-Feb-11 14:59N 39°32' W 075°49'0 0.0
2018-Feb-11 14:26N 39°32' W 075°49'0 0.0
2018-Feb-11 13:59N 39°32' W 075°49'0 0.0
2018-Feb-11 13:29N 39°32' W 075°49'0 0.0
2018-Feb-11 12:59N 39°32' W 075°49'  
Track history (hours):
 
Tides and Currents Weather Stations Pressure Air Temp Water Temp Dewpoint Dewpoint Depression Visibility Wind Speed Wind Dir Waves Ship Positions

H.r.spies

Last reported at 2018-Feb-21 12:53 UTC. Time now 2018-Feb-21 13:25 UTC.
Position N 39°22' W 076°07'.

; draft 5 m.

Type: Dredging. MMSI: 368926068.

Date/timePositionNaut miles runAvg speedWind from/ knotsBaromVisibWave heightAir tempDewpointWater temp
2018-Feb-21 12:53N 39°22' W 076°07'821.3
2018-Feb-21 12:30N 39°27' W 075°59'612.4
2018-Feb-21 12:00N 39°31' W 075°53'4 6.7
2018-Feb-21 11:29N 39°32' W 075°49'0 0.0
2018-Feb-21 10:59N 39°32' W 075°49'0 0.0
2018-Feb-21 10:29N 39°32' W 075°49'0 0.0
2018-Feb-21 10:00N 39°32' W 075°49'0 0.0
2018-Feb-21 09:30N 39°32' W 075°49'0 0.0
2018-Feb-21 09:00N 39°32' W 075°49'0 0.0
2018-Feb-21 08:30N 39°32' W 075°49'0 0.0
2018-Feb-21 07:57N 39°32' W 075°49'0 0.0
2018-Feb-21 07:30N 39°32' W 075°49'0 0.0
2018-Feb-21 07:00N 39°32' W 075°49'0 0.0
2018-Feb-21 06:30N 39°32' W 075°49'0 0.0
2018-Feb-21 06:00N 39°32' W 075°49'0 0.0
2018-Feb-21 05:30N 39°32' W 075°49'0 0.0
2018-Feb-21 05:00N 39°32' W 075°49'0 0.0
2018-Feb-21 04:30N 39°32' W 075°49'0 0.0
2018-Feb-21 04:00N 39°32' W 075°49'0 0.0
2018-Feb-21 03:30N 39°32' W 075°49'0 0.0
2018-Feb-21 03:00N 39°32' W 075°49'0 0.0
2018-Feb-21 02:30N 39°32' W 075°49'0 0.0
2018-Feb-21 01:57N 39°32' W 075°49'0 0.0
2018-Feb-21 01:30N 39°32' W 075°49'0 0.0
2018-Feb-21 01:00N 39°32' W 075°49'0 0.0
2018-Feb-21 00:30N 39°32' W 075°49'0 0.0
2018-Feb-21 00:00N 39°32' W 075°49'0 0.0
2018-Feb-20 23:30N 39°32' W 075°49'0 0.0
2018-Feb-20 23:00N 39°32' W 075°49'0 0.0
2018-Feb-20 22:30N 39°32' W 075°49'0 0.0
2018-Feb-20 22:00N 39°32' W 075°49'0 0.0
2018-Feb-20 21:30N 39°32' W 075°49'0 0.0
2018-Feb-20 21:00N 39°32' W 075°49'0 0.0
2018-Feb-20 20:30N 39°32' W 075°49'0 0.0
2018-Feb-20 20:00N 39°32' W 075°49'0 0.0
2018-Feb-20 19:21N 39°32' W 075°49'0 0.0
2018-Feb-20 19:00N 39°32' W 075°49'0 0.0
2018-Feb-20 18:30N 39°32' W 075°49'0 0.0
2018-Feb-20 18:00N 39°32' W 075°49'0 0.0
2018-Feb-20 17:27N 39°32' W 075°49'0 0.0
2018-Feb-20 16:54N 39°32' W 075°49'0 0.0
2018-Feb-20 16:30N 39°32' W 075°49'0 0.0
2018-Feb-20 15:57N 39°32' W 075°49'1 2.8
2018-Feb-20 15:30N 39°32' W 075°50'1 2.5
2018-Feb-20 15:00N 39°32' W 075°49'0 0.0
2018-Feb-20 14:30N 39°32' W 075°49'0 0.0
2018-Feb-20 14:00N 39°32' W 075°49'0 0.0
2018-Feb-20 13:30N 39°32' W 075°49'0 0.0
2018-Feb-20 13:00N 39°32' W 075°49'0 0.0
2018-Feb-20 12:30N 39°32' W 075°49'3 5.2
2018-Feb-20 12:00N 39°32' W 075°52'3 4.8
2018-Feb-20 11:29N 39°32' W 075°49'0 0.0
2018-Feb-20 10:59N 39°32' W 075°49'0 0.0
2018-Feb-20 10:29N 39°32' W 075°49'0 0.0
2018-Feb-20 09:59N 39°32' W 075°49'0 0.0
2018-Feb-20 09:29N 39°32' W 075°49'0 0.0
2018-Feb-20 08:59N 39°32' W 075°49'0 0.0
2018-Feb-20 08:29N 39°32' W 075°49'0 0.0
2018-Feb-20 07:59N 39°32' W 075°49'0 0.0
2018-Feb-20 07:26N 39°32' W 075°49'0 0.0
2018-Feb-20 06:59N 39°32' W 075°49'0 0.0
2018-Feb-20 06:26N 39°32' W 075°49'0 0.0
2018-Feb-20 05:56N 39°32' W 075°49'0 0.0
2018-Feb-20 05:26N 39°32' W 075°49'0 0.0
2018-Feb-20 04:59N 39°32' W 075°49'0 0.0
2018-Feb-20 04:29N 39°32' W 075°49'0 0.0
2018-Feb-20 03:59N 39°32' W 075°49'0 0.0
2018-Feb-20 03:29N 39°32' W 075°49'0 0.0
2018-Feb-20 02:59N 39°32' W 075°49'0 0.0
2018-Feb-20 02:29N 39°32' W 075°49'0 0.0
2018-Feb-20 01:59N 39°32' W 075°49'0 0.0
2018-Feb-20 01:29N 39°32' W 075°49'0 0.0
2018-Feb-20 00:56N 39°32' W 075°49'0 0.0
2018-Feb-20 00:28N 39°32' W 075°49'0 0.0
2018-Feb-19 23:58N 39°32' W 075°49'0 0.0
2018-Feb-19 23:28N 39°32' W 075°49'0 0.0
2018-Feb-19 22:58N 39°32' W 075°49'0 0.0
2018-Feb-19 22:29N 39°32' W 075°49'0 0.0
2018-Feb-19 21:59N 39°32' W 075°49'0 0.0
2018-Feb-19 21:23N 39°32' W 075°49'0 0.0
2018-Feb-19 20:59N 39°32' W 075°49'0 0.0
2018-Feb-19 20:29N 39°32' W 075°49'0 0.0
2018-Feb-19 19:59N 39°32' W 075°49'0 0.0
2018-Feb-19 19:29N 39°32' W 075°49'0 0.0
2018-Feb-19 18:59N 39°32' W 075°49'0 0.0
2018-Feb-19 18:29N 39°32' W 075°49'0 0.0
2018-Feb-19 17:59N 39°32' W 075°49'0 0.0
2018-Feb-19 17:29N 39°32' W 075°49'0 0.0
2018-Feb-19 16:59N 39°32' W 075°49'0 0.0
2018-Feb-19 16:26N 39°32' W 075°49'0 0.0
2018-Feb-19 15:59N 39°32' W 075°49'0 0.0
2018-Feb-19 15:29N 39°32' W 075°49'0 0.0
2018-Feb-19 14:59N 39°32' W 075°49'0 0.0
2018-Feb-19 14:20N 39°32' W 075°49'0 0.0
2018-Feb-19 13:59N 39°32' W 075°49'0 0.0
2018-Feb-19 13:29N 39°32' W 075°49'0 0.0
2018-Feb-19 12:59N 39°32' W 075°49'0 0.0
2018-Feb-19 12:29N 39°32' W 075°49'0 0.0
2018-Feb-19 12:00N 39°32' W 075°49'0 0.0
2018-Feb-19 11:29N 39°32' W 075°49'0 0.0
2018-Feb-19 10:59N 39°32' W 075°49'0 0.0
2018-Feb-19 10:26N 39°32' W 075°49'0 0.0
2018-Feb-19 09:59N 39°32' W 075°49'0 0.0
2018-Feb-19 09:29N 39°32' W 075°49'0 0.0
2018-Feb-19 08:59N 39°32' W 075°49'0 0.0
2018-Feb-19 08:23N 39°32' W 075°49'0 0.0
2018-Feb-19 07:59N 39°32' W 075°49'0 0.0
2018-Feb-19 07:29N 39°32' W 075°49'0 0.0
2018-Feb-19 06:56N 39°32' W 075°49'0 0.0
2018-Feb-19 06:29N 39°32' W 075°49'0 0.0
2018-Feb-19 05:56N 39°32' W 075°49'0 0.0
2018-Feb-19 05:29N 39°32' W 075°49'0 0.0
2018-Feb-19 04:59N 39°32' W 075°49'0 0.0
2018-Feb-19 04:29N 39°32' W 075°49'0 0.0
2018-Feb-19 03:59N 39°32' W 075°49'0 0.0
2018-Feb-19 03:29N 39°32' W 075°49'0 0.0
2018-Feb-19 02:59N 39°32' W 075°49'0 0.0
2018-Feb-19 02:29N 39°32' W 075°49'0 0.0
2018-Feb-19 01:56N 39°32' W 075°49'0 0.0
2018-Feb-19 01:29N 39°32' W 075°49'0 0.0
2018-Feb-19 00:59N 39°32' W 075°49'0 0.0
2018-Feb-19 00:29N 39°32' W 075°49'0 0.0
2018-Feb-18 23:56N 39°32' W 075°49'0 0.0
2018-Feb-18 23:29N 39°32' W 075°49'0 0.0
2018-Feb-18 22:56N 39°32' W 075°49'0 0.0
2018-Feb-18 22:29N 39°32' W 075°49'0 0.0
2018-Feb-18 21:59N 39°32' W 075°49'0 0.0
2018-Feb-18 21:29N 39°32' W 075°49'0 0.0
2018-Feb-18 20:59N 39°32' W 075°49'0 0.0
2018-Feb-18 20:29N 39°32' W 075°49'0 0.0
2018-Feb-18 19:59N 39°32' W 075°49'0 0.0
2018-Feb-18 19:29N 39°32' W 075°49'0 0.0
2018-Feb-18 18:55N 39°32' W 075°49'0 0.0
2018-Feb-18 18:28N 39°32' W 075°49'0 0.0
2018-Feb-18 17:58N 39°32' W 075°49'0 0.0
2018-Feb-18 17:28N 39°32' W 075°49'0 0.0
2018-Feb-18 16:55N 39°32' W 075°49'0 0.0
2018-Feb-18 16:28N 39°32' W 075°49'0 0.0
2018-Feb-18 15:58N 39°32' W 075°49'0 0.0
2018-Feb-18 15:28N 39°32' W 075°49'0 0.0
2018-Feb-18 14:58N 39°32' W 075°49'0 0.0
2018-Feb-18 14:25N 39°32' W 075°49'0 0.0
2018-Feb-18 13:58N 39°32' W 075°49'0 0.0
2018-Feb-18 13:25N 39°32' W 075°49'0 0.0
2018-Feb-18 12:55N 39°32' W 075°49'0 0.0
2018-Feb-18 12:28N 39°32' W 075°49'0 0.0
2018-Feb-18 11:58N 39°32' W 075°49'0 0.0
2018-Feb-18 11:28N 39°32' W 075°49'0 0.0
2018-Feb-18 10:58N 39°32' W 075°49'0 0.0
2018-Feb-18 10:28N 39°32' W 075°49'0 0.0
2018-Feb-18 09:58N 39°32' W 075°49'0 0.0
2018-Feb-18 09:28N 39°32' W 075°49'0 0.0
2018-Feb-18 08:58N 39°32' W 075°49'0 0.0
2018-Feb-18 08:25N 39°32' W 075°49'0 0.0
2018-Feb-18 07:58N 39°32' W 075°49'0 0.0
2018-Feb-18 07:28N 39°32' W 075°49'0 0.0
2018-Feb-18 06:58N 39°32' W 075°49'0 0.0
2018-Feb-18 06:29N 39°32' W 075°49'0 0.0
2018-Feb-18 05:59N 39°32' W 075°49'0 0.0
2018-Feb-18 05:29N 39°32' W 075°49'0 0.0
2018-Feb-18 04:59N 39°32' W 075°49'0 0.0
2018-Feb-18 04:29N 39°32' W 075°49'0 0.0
2018-Feb-18 03:59N 39°32' W 075°49'0 0.0
2018-Feb-18 03:29N 39°32' W 075°49'0 0.0
2018-Feb-18 03:00N 39°32' W 075°49'0 0.0
2018-Feb-18 02:29N 39°32' W 075°49'0 0.0
2018-Feb-18 01:56N 39°32' W 075°49'0 0.0
2018-Feb-18 01:29N 39°32' W 075°49'0 0.0
2018-Feb-18 00:47N 39°32' W 075°49'0 0.0
2018-Feb-18 00:26N 39°32' W 075°49'0 0.0
2018-Feb-17 23:59N 39°32' W 075°49'0 0.0
2018-Feb-17 22:59N 39°32' W 075°49'0 0.0
2018-Feb-17 22:29N 39°32' W 075°49'0 0.0
2018-Feb-17 21:59N 39°32' W 075°49'0 0.0
2018-Feb-17 21:29N 39°32' W 075°49'0 0.0
2018-Feb-17 20:59N 39°32' W 075°49'0 0.0
2018-Feb-17 20:29N 39°32' W 075°49'0 0.0
2018-Feb-17 19:59N 39°32' W 075°49'0 0.0
2018-Feb-17 19:29N 39°32' W 075°49'0 0.0
2018-Feb-17 18:56N 39°32' W 075°49'0 0.0
2018-Feb-17 18:29N 39°32' W 075°49'0 0.0
2018-Feb-17 17:58N 39°32' W 075°49'0 0.0
2018-Feb-17 17:28N 39°32' W 075°49'0 0.0
2018-Feb-17 16:58N 39°32' W 075°49'0 0.0
2018-Feb-17 16:28N 39°32' W 075°49'0 0.0
2018-Feb-17 15:58N 39°32' W 075°49'0 0.0
2018-Feb-17 15:28N 39°32' W 075°49'0 0.0
2018-Feb-17 14:58N 39°32' W 075°49'0 0.0
2018-Feb-17 14:28N 39°32' W 075°49'0 0.0
2018-Feb-17 13:55N 39°32' W 075°49'0 0.0
2018-Feb-17 13:28N 39°32' W 075°49'0 0.0
2018-Feb-17 12:58N 39°32' W 075°49'0 0.0
2018-Feb-17 12:28N 39°32' W 075°49'0 0.0
2018-Feb-17 11:58N 39°32' W 075°49'0 0.0
2018-Feb-16 18:52N 39°32' W 075°49'0 0.0
2018-Feb-16 18:28N 39°32' W 075°49'0 0.0
2018-Feb-16 17:58N 39°32' W 075°49'0 0.0
2018-Feb-16 17:28N 39°32' W 075°49'0 0.0
2018-Feb-16 16:55N 39°32' W 075°49'0 0.0
2018-Feb-16 16:25N 39°32' W 075°49'0 0.0
2018-Feb-16 15:58N 39°32' W 075°49'0 0.0
2018-Feb-16 15:28N 39°32' W 075°49'0 0.0
2018-Feb-16 14:58N 39°32' W 075°49'0 0.0
2018-Feb-16 14:28N 39°32' W 075°49'0 0.0
2018-Feb-16 13:58N 39°32' W 075°49'0 0.0
2018-Feb-16 13:28N 39°32' W 075°49'0 0.0
2018-Feb-16 12:58N 39°32' W 075°49'0 0.0
2018-Feb-16 12:28N 39°32' W 075°49'0 0.0
2018-Feb-16 11:55N 39°32' W 075°49'0 0.0
2018-Feb-16 11:25N 39°32' W 075°49'0 0.0
2018-Feb-16 10:55N 39°32' W 075°49'0 0.0
2018-Feb-16 10:28N 39°32' W 075°49'0 0.0
2018-Feb-16 09:58N 39°32' W 075°49'0 0.0
2018-Feb-16 09:25N 39°32' W 075°49'0 0.0
2018-Feb-16 08:58N 39°32' W 075°49'0 0.0
2018-Feb-16 08:28N 39°32' W 075°49'0 0.0
2018-Feb-16 07:55N 39°32' W 075°49'0 0.0
2018-Feb-16 07:25N 39°32' W 075°49'0 0.0
2018-Feb-16 06:58N 39°32' W 075°49'0 0.0
2018-Feb-16 06:28N 39°32' W 075°49'0 0.0
2018-Feb-16 05:58N 39°32' W 075°49'0 0.0
2018-Feb-16 05:28N 39°32' W 075°49'0 0.0
2018-Feb-16 04:55N 39°32' W 075°49'0 0.0
2018-Feb-16 04:28N 39°32' W 075°49'0 0.0
2018-Feb-16 03:58N 39°32' W 075°49'0 0.0
2018-Feb-16 03:28N 39°32' W 075°49'0 0.0
2018-Feb-16 02:58N 39°32' W 075°49'0 0.0
2018-Feb-16 02:28N 39°32' W 075°49'0 0.0
2018-Feb-16 01:55N 39°32' W 075°49'0 0.0
2018-Feb-16 01:28N 39°32' W 075°49'0 0.0
2018-Feb-15 23:04N 39°32' W 075°49'0 0.0
2018-Feb-15 22:55N 39°32' W 075°49'0 0.0
2018-Feb-15 22:28N 39°32' W 075°49'0 0.0
2018-Feb-15 21:58N 39°32' W 075°49'0 0.0
2018-Feb-15 21:28N 39°32' W 075°49'0 0.0
2018-Feb-15 20:58N 39°32' W 075°49'0 0.0
2018-Feb-15 20:28N 39°32' W 075°49'0 0.0
2018-Feb-15 19:58N 39°32' W 075°49'0 0.0
2018-Feb-15 19:25N 39°32' W 075°49'0 0.0
2018-Feb-15 18:58N 39°32' W 075°49'0 0.0
2018-Feb-15 18:28N 39°32' W 075°49'0 0.0
2018-Feb-15 17:52N 39°32' W 075°49'0 0.0
2018-Feb-15 17:22N 39°32' W 075°49'0 0.0
2018-Feb-15 16:58N 39°32' W 075°49'1012.0
2018-Feb-15 16:05N 39°26' W 076°00'0 1.0
2018-Feb-15 16:01N 39°26' W 076°00'0 0.1
2018-Feb-15 15:15N 39°26' W 076°00'0 1.9
2018-Feb-15 15:00N 39°26' W 076°01'0 0.3
2018-Feb-15 14:20N 39°26' W 076°01'0 1.0
2018-Feb-15 14:00N 39°26' W 076°01'0 0.7
2018-Feb-15 13:30N 39°26' W 076°01'0 0.2
2018-Feb-15 13:00N 39°26' W 076°01'2 3.4
2018-Feb-15 12:31N 39°27' W 075°59'918.4
2018-Feb-15 12:00N 39°32' W 075°49'0 0.2
2018-Feb-15 11:30N 39°32' W 075°49'0 0.0
2018-Feb-15 11:00N 39°32' W 075°49'0 0.0
2018-Feb-15 10:30N 39°32' W 075°49'0 0.0
2018-Feb-15 09:57N 39°32' W 075°49'0 0.0
2018-Feb-15 09:30N 39°32' W 075°49'0 0.0
2018-Feb-15 09:00N 39°32' W 075°49'0 0.0
2018-Feb-15 08:30N 39°32' W 075°49'0 0.0
2018-Feb-15 07:57N 39°32' W 075°49'0 0.0
2018-Feb-15 07:30N 39°32' W 075°49'0 0.0
2018-Feb-15 07:00N 39°32' W 075°49'0 0.0
2018-Feb-15 06:24N 39°32' W 075°49'0 0.0
2018-Feb-15 06:00N 39°32' W 075°49'0 0.0
2018-Feb-15 05:30N 39°32' W 075°49'0 0.0
2018-Feb-15 05:00N 39°32' W 075°49'0 0.0
2018-Feb-15 04:30N 39°32' W 075°49'0 0.0
2018-Feb-15 04:00N 39°32' W 075°49'0 0.0
2018-Feb-15 03:30N 39°32' W 075°49'0 0.0
2018-Feb-15 02:57N 39°32' W 075°49'0 0.0
2018-Feb-15 02:30N 39°32' W 075°49'0 0.0
2018-Feb-15 01:59N 39°32' W 075°49'0 0.0
2018-Feb-15 01:30N 39°32' W 075°49'0 0.0
2018-Feb-15 00:57N 39°32' W 075°49'0 0.0
2018-Feb-15 00:29N 39°32' W 075°49'0 0.0
2018-Feb-15 00:00N 39°32' W 075°49'0 0.0
2018-Feb-14 23:30N 39°32' W 075°49'0 0.0
2018-Feb-14 22:59N 39°32' W 075°49'0 0.0
2018-Feb-14 22:21N 39°32' W 075°49'0 0.0
2018-Feb-14 21:59N 39°32' W 075°49'0 0.0
2018-Feb-14 21:30N 39°32' W 075°49'0 0.0
2018-Feb-14 21:00N 39°32' W 075°49'0 0.0
2018-Feb-14 20:30N 39°32' W 075°49'0 0.0
2018-Feb-14 19:59N 39°32' W 075°49'0 0.0
2018-Feb-14 19:31N 39°32' W 075°49'0 0.0
2018-Feb-14 19:01N 39°32' W 075°49'1 1.5
2018-Feb-14 18:30N 39°32' W 075°49'1018.5
2018-Feb-14 17:59N 39°26' W 076°00'2 3.5
2018-Feb-14 17:30N 39°25' W 076°01'0 0.8
2018-Feb-14 17:00N 39°25' W 076°01'0 0.4
2018-Feb-14 16:31N 39°25' W 076°01'0 0.2
2018-Feb-14 16:00N 39°25' W 076°01'0 0.9
2018-Feb-14 15:28N 39°25' W 076°02'1021.9
2018-Feb-14 15:00N 39°32' W 075°52'2 4.7
2018-Feb-14 14:29N 39°32' W 075°49'0 0.0
2018-Feb-14 13:59N 39°32' W 075°49'0 0.0
2018-Feb-14 13:29N 39°32' W 075°49'0 0.0
2018-Feb-14 12:59N 39°32' W 075°49'0 0.0
2018-Feb-14 12:29N 39°32' W 075°49'0 0.0
2018-Feb-14 11:59N 39°32' W 075°49'0 0.0
2018-Feb-14 11:29N 39°32' W 075°49'0 0.0
2018-Feb-14 10:59N 39°32' W 075°49'0 0.0
2018-Feb-14 10:29N 39°32' W 075°49'0 0.0
2018-Feb-14 09:59N 39°32' W 075°49'0 0.0
2018-Feb-14 09:26N 39°32' W 075°49'0 0.0
2018-Feb-14 08:59N 39°32' W 075°49'0 0.0
2018-Feb-14 08:29N 39°32' W 075°49'0 0.0
2018-Feb-14 07:59N 39°32' W 075°49'0 0.0
2018-Feb-14 07:29N 39°32' W 075°49'0 0.0
2018-Feb-14 06:59N 39°32' W 075°49'0 0.0
2018-Feb-14 06:29N 39°32' W 075°49'0 0.0
2018-Feb-14 05:59N 39°32' W 075°49'0 0.0
2018-Feb-14 05:29N 39°32' W 075°49'0 0.0
2018-Feb-14 04:59N 39°32' W 075°49'0 0.0
2018-Feb-14 04:29N 39°32' W 075°49'0 0.0
2018-Feb-14 03:56N 39°32' W 075°49'0 0.0
2018-Feb-14 03:26N 39°32' W 075°49'0 0.0
2018-Feb-14 02:59N 39°32' W 075°49'0 0.0
2018-Feb-14 02:29N 39°32' W 075°49'0 0.0
2018-Feb-14 01:56N 39°32' W 075°49'0 0.0
2018-Feb-14 01:29N 39°32' W 075°49'0 0.0
2018-Feb-14 00:59N 39°32' W 075°49'0 0.0
2018-Feb-14 00:28N 39°32' W 075°49'0 0.0
2018-Feb-13 23:46N 39°32' W 075°49'0 0.0
2018-Feb-13 23:28N 39°32' W 075°49'0 0.0
2018-Feb-13 22:58N 39°32' W 075°49'0 0.0
2018-Feb-13 22:28N 39°32' W 075°49'0 0.0
2018-Feb-13 21:58N 39°32' W 075°49'0 0.0
2018-Feb-13 21:25N 39°32' W 075°49'717.6
2018-Feb-13 21:00N 39°33' W 075°39'1019.7
2018-Feb-13 20:31N 39°26' W 075°31'1223.2
2018-Feb-13 20:00N 39°17' W 075°21'1 1.1
2018-Feb-13 19:30N 39°17' W 075°22'1 1.7
2018-Feb-13 19:01N 39°16' W 075°21'0 0.7
2018-Feb-13 18:31N 39°17' W 075°21'0 0.6
2018-Feb-13 18:00N 39°17' W 075°21'1 1.1
2018-Feb-13 17:31N 39°16' W 075°21'4 8.6
2018-Feb-13 17:00N 39°13' W 075°17'0 0.1
2018-Feb-13 16:30N 39°13' W 075°17'0 0.5
2018-Feb-13 16:01N 39°13' W 075°17'0 0.4
2018-Feb-13 15:30N 39°13' W 075°18'0 0.3
2018-Feb-13 15:00N 39°13' W 075°18'0 0.3
2018-Feb-13 14:30N 39°13' W 075°18'0 0.4
2018-Feb-13 14:00N 39°13' W 075°18'0 0.3
2018-Feb-13 13:31N 39°13' W 075°18'5 9.9
2018-Feb-13 13:01N 39°17' W 075°21'1224.5
2018-Feb-13 12:31N 39°26' W 075°32'918.1
2018-Feb-13 12:01N 39°33' W 075°40'612.4
2018-Feb-13 11:29N 39°32' W 075°49'0 0.0
2018-Feb-13 10:59N 39°32' W 075°49'0 0.0
2018-Feb-13 10:26N 39°32' W 075°49'0 0.0
2018-Feb-13 09:56N 39°32' W 075°49'0 0.0
2018-Feb-13 09:29N 39°32' W 075°49'0 0.0
2018-Feb-13 08:56N 39°32' W 075°49'0 0.0
2018-Feb-13 08:29N 39°32' W 075°49'0 0.0
2018-Feb-13 07:59N 39°32' W 075°49'0 0.0
2018-Feb-13 07:29N 39°32' W 075°49'0 0.0
2018-Feb-13 06:56N 39°32' W 075°49'0 0.0
2018-Feb-13 06:29N 39°32' W 075°49'0 0.0
2018-Feb-13 05:59N 39°32' W 075°49'0 0.0
2018-Feb-13 05:29N 39°32' W 075°49'0 0.0
2018-Feb-13 04:56N 39°32' W 075°49'0 0.0
2018-Feb-13 04:29N 39°32' W 075°49'0 0.0
2018-Feb-13 03:59N 39°32' W 075°49'0 0.0
2018-Feb-13 03:29N 39°32' W 075°49'0 0.0
2018-Feb-13 02:59N 39°32' W 075°49'0 0.0
2018-Feb-13 02:29N 39°32' W 075°49'0 0.0
2018-Feb-13 01:59N 39°32' W 075°49'0 0.0
2018-Feb-13 01:29N 39°32' W 075°49'0 0.0
2018-Feb-13 01:00N 39°32' W 075°49'0 0.0
2018-Feb-13 00:30N 39°32' W 075°49'0 0.0
2018-Feb-13 00:00N 39°32' W 075°49'0 0.0
2018-Feb-12 23:30N 39°32' W 075°49'0 0.0
2018-Feb-12 22:57N 39°32' W 075°49'0 0.0
2018-Feb-12 22:30N 39°32' W 075°49'0 0.0
2018-Feb-12 21:56N 39°32' W 075°49'0 0.0
2018-Feb-12 21:29N 39°32' W 075°49'0 0.0
2018-Feb-12 20:56N 39°32' W 075°49'0 0.0
2018-Feb-12 20:27N 39°32' W 075°49'0 0.0
2018-Feb-12 20:00N 39°32' W 075°49'0 0.0
2018-Feb-12 19:27N 39°32' W 075°49'0 0.0
2018-Feb-12 19:00N 39°32' W 075°49'0 0.0
2018-Feb-12 18:30N 39°32' W 075°49'0 0.0
2018-Feb-12 17:57N 39°32' W 075°49'0 0.0
2018-Feb-12 17:30N 39°32' W 075°49'0 0.0
2018-Feb-12 17:00N 39°32' W 075°49'0 0.0
2018-Feb-12 16:30N 39°32' W 075°49'0 0.0
2018-Feb-12 16:00N 39°32' W 075°49'0 0.1
2018-Feb-12 15:18N 39°32' W 075°49'518.1
2018-Feb-12 15:01N 39°33' W 075°42'713.0
2018-Feb-12 14:31N 39°34' W 075°34'0 0.2
2018-Feb-12 14:00N 39°34' W 075°33'2 3.9
2018-Feb-12 13:31N 39°33' W 075°36'1019.7
2018-Feb-12 13:00N 39°32' W 075°49'0 0.0
2018-Feb-12 12:28N 39°32' W 075°49'0 0.0
2018-Feb-12 11:58N 39°32' W 075°49'0 0.0
2018-Feb-12 11:22N 39°32' W 075°49'0 0.0
2018-Feb-12 10:58N 39°32' W 075°49'0 0.0
2018-Feb-12 10:25N 39°32' W 075°49'0 0.0
2018-Feb-12 09:58N 39°32' W 075°49'0 0.0
2018-Feb-12 09:28N 39°32' W 075°49'0 0.0
2018-Feb-12 08:58N 39°32' W 075°49'0 0.0
2018-Feb-12 08:28N 39°32' W 075°49'0 0.0
2018-Feb-12 07:58N 39°32' W 075°49'0 0.0
2018-Feb-12 07:28N 39°32' W 075°49'0 0.0
2018-Feb-12 06:55N 39°32' W 075°49'0 0.0
2018-Feb-12 06:28N 39°32' W 075°49'0 0.0
2018-Feb-12 06:00N 39°32' W 075°49'0 0.0
2018-Feb-12 05:30N 39°32' W 075°49'0 0.0
2018-Feb-12 05:00N 39°32' W 075°49'0 0.0
2018-Feb-12 04:27N 39°32' W 075°49'0 0.0
2018-Feb-12 04:00N 39°32' W 075°49'0 0.0
2018-Feb-12 03:30N 39°32' W 075°49'0 0.0
2018-Feb-12 03:00N 39°32' W 075°49'0 0.0
2018-Feb-12 02:30N 39°32' W 075°49'0 0.0
2018-Feb-12 01:57N 39°32' W 075°49'0 0.0
2018-Feb-12 01:30N 39°32' W 075°49'0 0.0
2018-Feb-12 00:57N 39°32' W 075°49'0 0.0
2018-Feb-12 00:30N 39°32' W 075°49'0 0.0
2018-Feb-12 00:00N 39°32' W 075°49'0 0.0
2018-Feb-11 23:30N 39°32' W 075°49'0 0.0
2018-Feb-11 22:57N 39°32' W 075°49'0 0.0
2018-Feb-11 22:30N 39°32' W 075°49'0 0.0
2018-Feb-11 22:00N 39°32' W 075°49'0 0.0
2018-Feb-11 21:30N 39°32' W 075°49'0 0.0
2018-Feb-11 21:00N 39°32' W 075°49'0 0.0
2018-Feb-11 20:30N 39°32' W 075°49'0 0.0
2018-Feb-11 19:56N 39°32' W 075°49'0 0.0
2018-Feb-11 19:26N 39°32' W 075°49'0 0.0
2018-Feb-11 18:59N 39°32' W 075°49'0 0.0
2018-Feb-11 18:29N 39°32' W 075°49'0 0.0
2018-Feb-11 17:56N 39°32' W 075°49'0 0.0
2018-Feb-11 17:29N 39°32' W 075°49'0 0.0
2018-Feb-11 16:59N 39°32' W 075°49'0 0.0
2018-Feb-11 16:29N 39°32' W 075°49'0 0.0
2018-Feb-11 15:44N 39°32' W 075°49'0 0.0
2018-Feb-11 15:29N 39°32' W 075°49'0 0.0
2018-Feb-11 14:59N 39°32' W 075°49'0 0.0
2018-Feb-11 14:26N 39°32' W 075°49'0 0.0
2018-Feb-11 13:59N 39°32' W 075°49'0 0.0
2018-Feb-11 13:29N 39°32' W 075°49'0 0.0
2018-Feb-11 12:59N 39°32' W 075°49'  

Dump ship's entire track history